sensor_id;sensor_type;location;lat;lon;timestamp;P1;durP1;ratioP1;P2;durP2;ratioP2
47555;SDS011;33291;46.222;26.460;2022-07-06T00:01:49;12.07;;;8.65;;
47555;SDS011;33291;46.222;26.460;2022-07-06T00:04:16;9.65;;;8.00;;
47555;SDS011;33291;46.222;26.460;2022-07-06T00:06:44;9.20;;;8.20;;
47555;SDS011;33291;46.222;26.460;2022-07-06T00:09:10;13.48;;;8.55;;
47555;SDS011;33291;46.222;26.460;2022-07-06T00:11:36;12.43;;;8.63;;
47555;SDS011;33291;46.222;26.460;2022-07-06T00:14:02;10.82;;;8.35;;
47555;SDS011;33291;46.222;26.460;2022-07-06T00:16:28;9.10;;;8.20;;
47555;SDS011;33291;46.222;26.460;2022-07-06T00:18:54;10.27;;;7.93;;
47555;SDS011;33291;46.222;26.460;2022-07-06T00:21:20;20.10;;;8.52;;
47555;SDS011;33291;46.222;26.460;2022-07-06T00:23:45;9.18;;;8.27;;
47555;SDS011;33291;46.222;26.460;2022-07-06T00:26:11;10.10;;;8.35;;
47555;SDS011;33291;46.222;26.460;2022-07-06T00:28:36;12.10;;;9.15;;
47555;SDS011;33291;46.222;26.460;2022-07-06T00:31:02;12.18;;;8.63;;
47555;SDS011;33291;46.222;26.460;2022-07-06T00:33:28;15.82;;;8.27;;
47555;SDS011;33291;46.222;26.460;2022-07-06T00:35:54;12.85;;;8.65;;
47555;SDS011;33291;46.222;26.460;2022-07-06T00:38:20;10.90;;;9.05;;
47555;SDS011;33291;46.222;26.460;2022-07-06T00:40:45;11.48;;;8.60;;
47555;SDS011;33291;46.222;26.460;2022-07-06T00:43:11;12.15;;;7.65;;
47555;SDS011;33291;46.222;26.460;2022-07-06T00:45:37;9.93;;;8.55;;
47555;SDS011;33291;46.222;26.460;2022-07-06T00:48:02;13.05;;;8.45;;
47555;SDS011;33291;46.222;26.460;2022-07-06T00:50:28;14.98;;;8.65;;
47555;SDS011;33291;46.222;26.460;2022-07-06T00:55:21;12.73;;;8.82;;
47555;SDS011;33291;46.222;26.460;2022-07-06T00:57:51;10.73;;;8.57;;
47555;SDS011;33291;46.222;26.460;2022-07-06T01:00:18;10.77;;;7.78;;
47555;SDS011;33291;46.222;26.460;2022-07-06T01:02:45;15.60;;;8.30;;
47555;SDS011;33291;46.222;26.460;2022-07-06T01:05:12;17.73;;;7.93;;
47555;SDS011;33291;46.222;26.460;2022-07-06T01:07:39;10.45;;;8.38;;
47555;SDS011;33291;46.222;26.460;2022-07-06T01:10:07;12.35;;;8.43;;
47555;SDS011;33291;46.222;26.460;2022-07-06T01:12:35;10.35;;;8.65;;
47555;SDS011;33291;46.222;26.460;2022-07-06T01:15:05;9.75;;;8.02;;
47555;SDS011;33291;46.222;26.460;2022-07-06T01:17:32;12.40;;;9.20;;
47555;SDS011;33291;46.222;26.460;2022-07-06T01:22:35;10.95;;;8.23;;
47555;SDS011;33291;46.222;26.460;2022-07-06T01:25:00;12.88;;;8.63;;
47555;SDS011;33291;46.222;26.460;2022-07-06T01:27:26;12.32;;;7.72;;
47555;SDS011;33291;46.222;26.460;2022-07-06T01:29:51;10.18;;;8.55;;
47555;SDS011;33291;46.222;26.460;2022-07-06T01:32:17;8.77;;;7.85;;
47555;SDS011;33291;46.222;26.460;2022-07-06T01:34:42;12.77;;;8.55;;
47555;SDS011;33291;46.222;26.460;2022-07-06T01:37:08;9.35;;;8.32;;
47555;SDS011;33291;46.222;26.460;2022-07-06T01:39:33;15.45;;;8.95;;
47555;SDS011;33291;46.222;26.460;2022-07-06T01:41:59;13.40;;;8.40;;
47555;SDS011;33291;46.222;26.460;2022-07-06T01:44:24;11.40;;;8.10;;
47555;SDS011;33291;46.222;26.460;2022-07-06T01:46:50;12.55;;;8.32;;
47555;SDS011;33291;46.222;26.460;2022-07-06T01:49:15;14.30;;;8.82;;
47555;SDS011;33291;46.222;26.460;2022-07-06T01:51:41;10.90;;;8.52;;
47555;SDS011;33291;46.222;26.460;2022-07-06T01:54:06;12.50;;;8.23;;
47555;SDS011;33291;46.222;26.460;2022-07-06T01:56:32;12.40;;;8.05;;
47555;SDS011;33291;46.222;26.460;2022-07-06T01:58:57;9.48;;;8.20;;
47555;SDS011;33291;46.222;26.460;2022-07-06T02:01:23;11.55;;;8.60;;
47555;SDS011;33291;46.222;26.460;2022-07-06T02:03:48;9.63;;;7.82;;
47555;SDS011;33291;46.222;26.460;2022-07-06T02:06:14;14.70;;;8.25;;
47555;SDS011;33291;46.222;26.460;2022-07-06T02:08:41;11.88;;;8.32;;
47555;SDS011;33291;46.222;26.460;2022-07-06T02:11:07;16.40;;;8.50;;
47555;SDS011;33291;46.222;26.460;2022-07-06T02:13:34;13.35;;;8.50;;
47555;SDS011;33291;46.222;26.460;2022-07-06T02:16:01;10.70;;;8.00;;
47555;SDS011;33291;46.222;26.460;2022-07-06T02:18:27;13.27;;;8.93;;
47555;SDS011;33291;46.222;26.460;2022-07-06T02:20:53;10.43;;;8.30;;
47555;SDS011;33291;46.222;26.460;2022-07-06T02:23:18;8.75;;;7.80;;
47555;SDS011;33291;46.222;26.460;2022-07-06T02:25:44;11.32;;;8.25;;
47555;SDS011;33291;46.222;26.460;2022-07-06T02:28:10;11.82;;;8.40;;
47555;SDS011;33291;46.222;26.460;2022-07-06T02:30:35;9.77;;;8.32;;
47555;SDS011;33291;46.222;26.460;2022-07-06T02:33:01;9.38;;;7.55;;
47555;SDS011;33291;46.222;26.460;2022-07-06T02:35:27;14.90;;;8.30;;
47555;SDS011;33291;46.222;26.460;2022-07-06T02:37:52;9.70;;;7.60;;
47555;SDS011;33291;46.222;26.460;2022-07-06T02:40:18;10.90;;;7.75;;
47555;SDS011;33291;46.222;26.460;2022-07-06T02:42:43;12.45;;;8.15;;
47555;SDS011;33291;46.222;26.460;2022-07-06T02:45:09;18.00;;;7.82;;
47555;SDS011;33291;46.222;26.460;2022-07-06T02:47:35;8.48;;;7.55;;
47555;SDS011;33291;46.222;26.460;2022-07-06T02:50:02;12.63;;;8.32;;
47555;SDS011;33291;46.222;26.460;2022-07-06T02:52:28;10.93;;;7.45;;
47555;SDS011;33291;46.222;26.460;2022-07-06T02:54:53;9.27;;;7.53;;
47555;SDS011;33291;46.222;26.460;2022-07-06T02:57:19;12.60;;;8.57;;
47555;SDS011;33291;46.222;26.460;2022-07-06T02:59:44;10.38;;;8.93;;
47555;SDS011;33291;46.222;26.460;2022-07-06T03:02:11;11.25;;;9.65;;
47555;SDS011;33291;46.222;26.460;2022-07-06T03:04:36;12.70;;;8.63;;
47555;SDS011;33291;46.222;26.460;2022-07-06T03:07:02;15.30;;;9.60;;
47555;SDS011;33291;46.222;26.460;2022-07-06T03:09:28;14.90;;;9.65;;
47555;SDS011;33291;46.222;26.460;2022-07-06T03:11:53;12.95;;;9.35;;
47555;SDS011;33291;46.222;26.460;2022-07-06T03:14:19;13.95;;;8.82;;
47555;SDS011;33291;46.222;26.460;2022-07-06T03:16:45;11.30;;;10.10;;
47555;SDS011;33291;46.222;26.460;2022-07-06T03:19:10;11.80;;;10.15;;
47555;SDS011;33291;46.222;26.460;2022-07-06T03:21:36;11.98;;;8.45;;
47555;SDS011;33291;46.222;26.460;2022-07-06T03:24:01;10.30;;;7.68;;
47555;SDS011;33291;46.222;26.460;2022-07-06T03:26:27;15.82;;;8.20;;
47555;SDS011;33291;46.222;26.460;2022-07-06T03:28:53;14.73;;;8.82;;
47555;SDS011;33291;46.222;26.460;2022-07-06T03:31:18;12.77;;;8.13;;
47555;SDS011;33291;46.222;26.460;2022-07-06T03:33:43;14.00;;;8.10;;
47555;SDS011;33291;46.222;26.460;2022-07-06T03:36:09;13.35;;;8.07;;
47555;SDS011;33291;46.222;26.460;2022-07-06T03:38:35;19.20;;;9.02;;
47555;SDS011;33291;46.222;26.460;2022-07-06T03:41:01;12.80;;;9.13;;
47555;SDS011;33291;46.222;26.460;2022-07-06T03:43:27;13.95;;;8.75;;
47555;SDS011;33291;46.222;26.460;2022-07-06T03:45:52;12.60;;;10.05;;
47555;SDS011;33291;46.222;26.460;2022-07-06T03:48:18;10.88;;;8.70;;
47555;SDS011;33291;46.222;26.460;2022-07-06T03:50:43;13.43;;;8.32;;
47555;SDS011;33291;46.222;26.460;2022-07-06T03:53:09;12.82;;;8.20;;
47555;SDS011;33291;46.222;26.460;2022-07-06T03:55:34;13.80;;;8.65;;
47555;SDS011;33291;46.222;26.460;2022-07-06T03:58:00;13.93;;;8.48;;
47555;SDS011;33291;46.222;26.460;2022-07-06T04:00:25;11.70;;;8.95;;
47555;SDS011;33291;46.222;26.460;2022-07-06T04:02:51;11.70;;;8.70;;
47555;SDS011;33291;46.222;26.460;2022-07-06T04:05:16;8.95;;;7.32;;
47555;SDS011;33291;46.222;26.460;2022-07-06T04:07:46;10.82;;;8.20;;
47555;SDS011;33291;46.222;26.460;2022-07-06T04:10:13;19.98;;;10.10;;
47555;SDS011;33291;46.222;26.460;2022-07-06T04:12:42;14.45;;;9.20;;
47555;SDS011;33291;46.222;26.460;2022-07-06T04:15:09;16.98;;;8.73;;
47555;SDS011;33291;46.222;26.460;2022-07-06T04:17:35;8.95;;;7.90;;
47555;SDS011;33291;46.222;26.460;2022-07-06T04:20:21;15.20;;;7.57;;
47555;SDS011;33291;46.222;26.460;2022-07-06T04:22:47;8.98;;;7.72;;
47555;SDS011;33291;46.222;26.460;2022-07-06T04:25:13;8.65;;;7.60;;
47555;SDS011;33291;46.222;26.460;2022-07-06T04:27:39;13.07;;;7.53;;
47555;SDS011;33291;46.222;26.460;2022-07-06T04:30:06;16.15;;;7.47;;
47555;SDS011;33291;46.222;26.460;2022-07-06T04:32:32;9.77;;;8.10;;
47555;SDS011;33291;46.222;26.460;2022-07-06T04:34:58;13.45;;;7.97;;
47555;SDS011;33291;46.222;26.460;2022-07-06T04:37:23;12.90;;;7.70;;
47555;SDS011;33291;46.222;26.460;2022-07-06T04:39:49;13.85;;;7.45;;
47555;SDS011;33291;46.222;26.460;2022-07-06T04:42:15;11.75;;;7.53;;
47555;SDS011;33291;46.222;26.460;2022-07-06T04:44:40;10.65;;;7.55;;
47555;SDS011;33291;46.222;26.460;2022-07-06T04:47:06;11.40;;;7.57;;
47555;SDS011;33291;46.222;26.460;2022-07-06T04:49:31;13.25;;;7.35;;
47555;SDS011;33291;46.222;26.460;2022-07-06T04:51:57;13.02;;;8.32;;
47555;SDS011;33291;46.222;26.460;2022-07-06T04:54:22;9.25;;;7.97;;
47555;SDS011;33291;46.222;26.460;2022-07-06T04:56:48;14.75;;;7.72;;
47555;SDS011;33291;46.222;26.460;2022-07-06T04:59:14;12.75;;;6.75;;
47555;SDS011;33291;46.222;26.460;2022-07-06T05:01:39;11.27;;;6.97;;
47555;SDS011;33291;46.222;26.460;2022-07-06T05:04:05;12.30;;;7.57;;
47555;SDS011;33291;46.222;26.460;2022-07-06T05:06:32;10.82;;;7.05;;
47555;SDS011;33291;46.222;26.460;2022-07-06T05:08:58;11.32;;;8.02;;
47555;SDS011;33291;46.222;26.460;2022-07-06T05:11:27;8.65;;;7.63;;
47555;SDS011;33291;46.222;26.460;2022-07-06T05:13:52;15.43;;;7.68;;
47555;SDS011;33291;46.222;26.460;2022-07-06T05:16:19;9.60;;;7.22;;
47555;SDS011;33291;46.222;26.460;2022-07-06T05:18:45;13.75;;;7.70;;
47555;SDS011;33291;46.222;26.460;2022-07-06T05:21:11;16.98;;;8.05;;
47555;SDS011;33291;46.222;26.460;2022-07-06T05:23:36;11.10;;;6.95;;
47555;SDS011;33291;46.222;26.460;2022-07-06T05:26:02;9.75;;;7.75;;
47555;SDS011;33291;46.222;26.460;2022-07-06T05:28:29;16.00;;;8.15;;
47555;SDS011;33291;46.222;26.460;2022-07-06T05:30:54;10.57;;;7.65;;
47555;SDS011;33291;46.222;26.460;2022-07-06T05:33:20;9.23;;;7.75;;
47555;SDS011;33291;46.222;26.460;2022-07-06T05:35:45;7.70;;;6.65;;
47555;SDS011;33291;46.222;26.460;2022-07-06T05:38:11;11.48;;;7.88;;
47555;SDS011;33291;46.222;26.460;2022-07-06T05:40:37;13.95;;;8.38;;
47555;SDS011;33291;46.222;26.460;2022-07-06T05:43:02;9.35;;;7.72;;
47555;SDS011;33291;46.222;26.460;2022-07-06T05:45:28;11.82;;;7.13;;
47555;SDS011;33291;46.222;26.460;2022-07-06T05:47:54;10.75;;;7.18;;
47555;SDS011;33291;46.222;26.460;2022-07-06T05:50:56;10.82;;;7.43;;
47555;SDS011;33291;46.222;26.460;2022-07-06T05:53:21;11.35;;;7.60;;
47555;SDS011;33291;46.222;26.460;2022-07-06T05:55:47;11.57;;;7.65;;
47555;SDS011;33291;46.222;26.460;2022-07-06T05:58:12;9.80;;;7.85;;
47555;SDS011;33291;46.222;26.460;2022-07-06T06:00:38;10.50;;;8.02;;
47555;SDS011;33291;46.222;26.460;2022-07-06T06:03:04;15.32;;;7.53;;
47555;SDS011;33291;46.222;26.460;2022-07-06T06:05:30;13.18;;;7.07;;
47555;SDS011;33291;46.222;26.460;2022-07-06T06:07:55;10.63;;;8.43;;
47555;SDS011;33291;46.222;26.460;2022-07-06T06:10:21;14.68;;;8.25;;
47555;SDS011;33291;46.222;26.460;2022-07-06T06:12:48;9.40;;;8.10;;
47555;SDS011;33291;46.222;26.460;2022-07-06T06:15:14;11.57;;;7.72;;
47555;SDS011;33291;46.222;26.460;2022-07-06T06:17:40;13.70;;;7.10;;
47555;SDS011;33291;46.222;26.460;2022-07-06T06:20:06;11.43;;;7.25;;
47555;SDS011;33291;46.222;26.460;2022-07-06T06:27:57;13.88;;;7.00;;
47555;SDS011;33291;46.222;26.460;2022-07-06T06:30:24;14.90;;;8.07;;
47555;SDS011;33291;46.222;26.460;2022-07-06T06:32:50;10.52;;;7.30;;
47555;SDS011;33291;46.222;26.460;2022-07-06T06:35:16;10.07;;;7.60;;
47555;SDS011;33291;46.222;26.460;2022-07-06T06:37:42;11.00;;;7.10;;
47555;SDS011;33291;46.222;26.460;2022-07-06T06:40:07;15.10;;;7.57;;
47555;SDS011;33291;46.222;26.460;2022-07-06T06:42:36;12.70;;;6.97;;
47555;SDS011;33291;46.222;26.460;2022-07-06T06:45:04;11.70;;;6.72;;
47555;SDS011;33291;46.222;26.460;2022-07-06T06:47:31;7.65;;;6.95;;
47555;SDS011;33291;46.222;26.460;2022-07-06T06:49:56;14.68;;;6.75;;
47555;SDS011;33291;46.222;26.460;2022-07-06T06:52:21;11.98;;;6.40;;
47555;SDS011;33291;46.222;26.460;2022-07-06T06:54:48;9.25;;;6.38;;
47555;SDS011;33291;46.222;26.460;2022-07-06T06:57:13;13.07;;;6.90;;
47555;SDS011;33291;46.222;26.460;2022-07-06T06:59:39;11.25;;;5.93;;
47555;SDS011;33291;46.222;26.460;2022-07-06T07:02:04;9.43;;;6.32;;
47555;SDS011;33291;46.222;26.460;2022-07-06T07:04:30;9.68;;;6.95;;
47555;SDS011;33291;46.222;26.460;2022-07-06T07:06:56;7.22;;;6.35;;
47555;SDS011;33291;46.222;26.460;2022-07-06T07:09:21;7.93;;;5.80;;
47555;SDS011;33291;46.222;26.460;2022-07-06T07:11:47;9.07;;;6.00;;
47555;SDS011;33291;46.222;26.460;2022-07-06T07:14:12;8.60;;;5.93;;
47555;SDS011;33291;46.222;26.460;2022-07-06T07:16:38;10.65;;;5.82;;
47555;SDS011;33291;46.222;26.460;2022-07-06T07:19:03;10.05;;;6.50;;
47555;SDS011;33291;46.222;26.460;2022-07-06T07:21:29;9.32;;;6.50;;
47555;SDS011;33291;46.222;26.460;2022-07-06T07:23:54;9.00;;;6.45;;
47555;SDS011;33291;46.222;26.460;2022-07-06T07:26:20;9.25;;;5.82;;
47555;SDS011;33291;46.222;26.460;2022-07-06T07:28:45;10.98;;;6.18;;
47555;SDS011;33291;46.222;26.460;2022-07-06T07:31:11;9.57;;;6.05;;
47555;SDS011;33291;46.222;26.460;2022-07-06T07:33:37;7.32;;;6.32;;
47555;SDS011;33291;46.222;26.460;2022-07-06T07:36:03;10.38;;;5.95;;
47555;SDS011;33291;46.222;26.460;2022-07-06T07:38:29;9.75;;;6.00;;
47555;SDS011;33291;46.222;26.460;2022-07-06T07:40:55;6.95;;;5.93;;
47555;SDS011;33291;46.222;26.460;2022-07-06T07:43:20;8.32;;;5.45;;
47555;SDS011;33291;46.222;26.460;2022-07-06T07:45:47;6.05;;;5.45;;
47555;SDS011;33291;46.222;26.460;2022-07-06T07:48:12;6.82;;;5.95;;
47555;SDS011;33291;46.222;26.460;2022-07-06T07:50:38;10.75;;;6.50;;
47555;SDS011;33291;46.222;26.460;2022-07-06T07:53:04;11.45;;;6.18;;
47555;SDS011;33291;46.222;26.460;2022-07-06T07:55:29;17.50;;;6.32;;
47555;SDS011;33291;46.222;26.460;2022-07-06T07:57:55;10.73;;;5.95;;
47555;SDS011;33291;46.222;26.460;2022-07-06T08:00:20;6.32;;;5.72;;
47555;SDS011;33291;46.222;26.460;2022-07-06T08:02:46;11.38;;;5.82;;
47555;SDS011;33291;46.222;26.460;2022-07-06T08:05:12;8.13;;;6.20;;
47555;SDS011;33291;46.222;26.460;2022-07-06T08:07:40;9.30;;;6.43;;
47555;SDS011;33291;46.222;26.460;2022-07-06T08:10:07;8.38;;;5.53;;
47555;SDS011;33291;46.222;26.460;2022-07-06T08:12:33;6.70;;;6.05;;
47555;SDS011;33291;46.222;26.460;2022-07-06T08:14:58;6.75;;;5.80;;
47555;SDS011;33291;46.222;26.460;2022-07-06T08:17:24;8.70;;;5.55;;
47555;SDS011;33291;46.222;26.460;2022-07-06T08:19:49;9.02;;;5.78;;
47555;SDS011;33291;46.222;26.460;2022-07-06T08:22:15;9.20;;;6.50;;
47555;SDS011;33291;46.222;26.460;2022-07-06T08:24:40;22.30;;;5.85;;
47555;SDS011;33291;46.222;26.460;2022-07-06T08:27:06;14.20;;;6.80;;
47555;SDS011;33291;46.222;26.460;2022-07-06T08:29:31;9.23;;;6.18;;
47555;SDS011;33291;46.222;26.460;2022-07-06T08:31:57;7.95;;;6.55;;
47555;SDS011;33291;46.222;26.460;2022-07-06T08:34:23;7.93;;;6.72;;
47555;SDS011;33291;46.222;26.460;2022-07-06T08:36:48;6.97;;;5.93;;
47555;SDS011;33291;46.222;26.460;2022-07-06T08:39:14;11.75;;;6.38;;
47555;SDS011;33291;46.222;26.460;2022-07-06T08:41:43;12.32;;;6.22;;
47555;SDS011;33291;46.222;26.460;2022-07-06T08:44:12;14.00;;;5.45;;
47555;SDS011;33291;46.222;26.460;2022-07-06T08:46:39;8.75;;;5.53;;
47555;SDS011;33291;46.222;26.460;2022-07-06T08:49:06;10.88;;;5.82;;
47555;SDS011;33291;46.222;26.460;2022-07-06T08:51:32;13.07;;;5.70;;
47555;SDS011;33291;46.222;26.460;2022-07-06T08:54:00;12.88;;;6.40;;
47555;SDS011;33291;46.222;26.460;2022-07-06T08:56:27;6.50;;;5.53;;
47555;SDS011;33291;46.222;26.460;2022-07-06T08:58:54;12.18;;;5.90;;
47555;SDS011;33291;46.222;26.460;2022-07-06T09:01:19;9.88;;;5.65;;
47555;SDS011;33291;46.222;26.460;2022-07-06T09:03:45;12.00;;;6.00;;
47555;SDS011;33291;46.222;26.460;2022-07-06T09:06:19;9.15;;;5.70;;
47555;SDS011;33291;46.222;26.460;2022-07-06T09:08:49;6.18;;;5.10;;
47555;SDS011;33291;46.222;26.460;2022-07-06T09:11:18;8.15;;;5.70;;
47555;SDS011;33291;46.222;26.460;2022-07-06T09:13:43;12.38;;;6.13;;
47555;SDS011;33291;46.222;26.460;2022-07-06T09:16:12;8.32;;;5.30;;
47555;SDS011;33291;46.222;26.460;2022-07-06T09:18:39;11.35;;;5.38;;
47555;SDS011;33291;46.222;26.460;2022-07-06T09:21:08;15.02;;;6.03;;
47555;SDS011;33291;46.222;26.460;2022-07-06T09:23:34;8.55;;;4.90;;
47555;SDS011;33291;46.222;26.460;2022-07-06T09:26:02;12.73;;;5.47;;
47555;SDS011;33291;46.222;26.460;2022-07-06T09:28:41;14.05;;;5.55;;
47555;SDS011;33291;46.222;26.460;2022-07-06T09:31:10;14.68;;;4.78;;
47555;SDS011;33291;46.222;26.460;2022-07-06T09:33:36;14.05;;;5.32;;
47555;SDS011;33291;46.222;26.460;2022-07-06T09:36:02;11.48;;;4.72;;
47555;SDS011;33291;46.222;26.460;2022-07-06T09:38:30;7.75;;;4.75;;
47555;SDS011;33291;46.222;26.460;2022-07-06T09:40:57;9.20;;;4.80;;
47555;SDS011;33291;46.222;26.460;2022-07-06T09:43:23;8.05;;;4.38;;
47555;SDS011;33291;46.222;26.460;2022-07-06T09:45:52;9.50;;;4.82;;
47555;SDS011;33291;46.222;26.460;2022-07-06T09:48:20;6.25;;;4.10;;
47555;SDS011;33291;46.222;26.460;2022-07-06T09:53:18;15.00;;;3.45;;
47555;SDS011;33291;46.222;26.460;2022-07-06T09:55:45;6.72;;;4.00;;
47555;SDS011;33291;46.222;26.460;2022-07-06T09:58:12;7.43;;;3.63;;
47555;SDS011;33291;46.222;26.460;2022-07-06T10:00:38;8.65;;;4.00;;
47555;SDS011;33291;46.222;26.460;2022-07-06T10:03:04;4.22;;;3.35;;
47555;SDS011;33291;46.222;26.460;2022-07-06T10:05:30;4.85;;;3.30;;
47555;SDS011;33291;46.222;26.460;2022-07-06T10:08:00;11.40;;;4.07;;
47555;SDS011;33291;46.222;26.460;2022-07-06T10:10:27;6.68;;;3.90;;
47555;SDS011;33291;46.222;26.460;2022-07-06T10:12:54;9.00;;;3.85;;
47555;SDS011;33291;46.222;26.460;2022-07-06T10:15:22;8.82;;;4.00;;
47555;SDS011;33291;46.222;26.460;2022-07-06T10:17:49;6.28;;;3.72;;
47555;SDS011;33291;46.222;26.460;2022-07-06T10:20:16;8.20;;;4.20;;
47555;SDS011;33291;46.222;26.460;2022-07-06T10:22:43;8.10;;;4.03;;
47555;SDS011;33291;46.222;26.460;2022-07-06T10:25:09;8.20;;;4.43;;
47555;SDS011;33291;46.222;26.460;2022-07-06T10:27:36;7.60;;;4.18;;
47555;SDS011;33291;46.222;26.460;2022-07-06T10:30:02;8.77;;;4.18;;
47555;SDS011;33291;46.222;26.460;2022-07-06T10:32:28;6.93;;;4.05;;
47555;SDS011;33291;46.222;26.460;2022-07-06T10:34:54;4.40;;;3.80;;
47555;SDS011;33291;46.222;26.460;2022-07-06T10:37:23;6.00;;;3.90;;
47555;SDS011;33291;46.222;26.460;2022-07-06T10:39:50;9.05;;;3.75;;
47555;SDS011;33291;46.222;26.460;2022-07-06T10:42:41;7.55;;;3.42;;
47555;SDS011;33291;46.222;26.460;2022-07-06T10:45:14;9.65;;;3.28;;
47555;SDS011;33291;46.222;26.460;2022-07-06T10:47:44;7.05;;;3.50;;
47555;SDS011;33291;46.222;26.460;2022-07-06T10:50:10;5.78;;;3.30;;
47555;SDS011;33291;46.222;26.460;2022-07-06T10:52:57;4.82;;;3.33;;
47555;SDS011;33291;46.222;26.460;2022-07-06T10:55:34;8.65;;;4.10;;
47555;SDS011;33291;46.222;26.460;2022-07-06T10:58:01;7.82;;;4.38;;
47555;SDS011;33291;46.222;26.460;2022-07-06T11:06:01;8.60;;;5.55;;
47555;SDS011;33291;46.222;26.460;2022-07-06T11:08:42;7.57;;;4.32;;
47555;SDS011;33291;46.222;26.460;2022-07-06T11:11:19;9.95;;;5.05;;
47555;SDS011;33291;46.222;26.460;2022-07-06T11:13:47;8.70;;;4.60;;
47555;SDS011;33291;46.222;26.460;2022-07-06T11:16:18;6.25;;;4.40;;
47555;SDS011;33291;46.222;26.460;2022-07-06T11:18:48;8.52;;;4.07;;
47555;SDS011;33291;46.222;26.460;2022-07-06T11:21:31;7.63;;;4.50;;
47555;SDS011;33291;46.222;26.460;2022-07-06T11:26:23;5.65;;;4.30;;
47555;SDS011;33291;46.222;26.460;2022-07-06T11:28:50;12.30;;;4.68;;
47555;SDS011;33291;46.222;26.460;2022-07-06T11:31:17;14.15;;;5.57;;
47555;SDS011;33291;46.222;26.460;2022-07-06T11:33:45;5.68;;;4.40;;
47555;SDS011;33291;46.222;26.460;2022-07-06T11:36:19;8.98;;;4.93;;
47555;SDS011;33291;46.222;26.460;2022-07-06T11:38:48;8.85;;;5.10;;
47555;SDS011;33291;46.222;26.460;2022-07-06T11:41:15;5.53;;;4.05;;
47555;SDS011;33291;46.222;26.460;2022-07-06T11:43:42;11.13;;;4.57;;
47555;SDS011;33291;46.222;26.460;2022-07-06T11:46:23;7.75;;;4.72;;
47555;SDS011;33291;46.222;26.460;2022-07-06T11:48:51;5.32;;;4.72;;
47555;SDS011;33291;46.222;26.460;2022-07-06T11:51:20;9.68;;;4.93;;
47555;SDS011;33291;46.222;26.460;2022-07-06T11:53:48;9.25;;;4.68;;
47555;SDS011;33291;46.222;26.460;2022-07-06T11:56:15;9.45;;;4.90;;
47555;SDS011;33291;46.222;26.460;2022-07-06T11:58:44;5.82;;;4.70;;
47555;SDS011;33291;46.222;26.460;2022-07-06T12:01:11;4.63;;;4.05;;
47555;SDS011;33291;46.222;26.460;2022-07-06T12:03:38;6.25;;;4.75;;
47555;SDS011;33291;46.222;26.460;2022-07-06T12:06:04;4.93;;;4.30;;
47555;SDS011;33291;46.222;26.460;2022-07-06T12:08:32;7.57;;;5.05;;
47555;SDS011;33291;46.222;26.460;2022-07-06T12:11:05;8.15;;;4.80;;
47555;SDS011;33291;46.222;26.460;2022-07-06T12:13:35;5.53;;;4.70;;
47555;SDS011;33291;46.222;26.460;2022-07-06T12:16:13;11.30;;;4.60;;
47555;SDS011;33291;46.222;26.460;2022-07-06T12:18:43;10.68;;;4.30;;
47555;SDS011;33291;46.222;26.460;2022-07-06T12:21:10;5.05;;;4.55;;
47555;SDS011;33291;46.222;26.460;2022-07-06T12:23:39;8.15;;;4.53;;
47555;SDS011;33291;46.222;26.460;2022-07-06T12:26:09;5.95;;;4.60;;
47555;SDS011;33291;46.222;26.460;2022-07-06T12:28:35;7.32;;;5.55;;
47555;SDS011;33291;46.222;26.460;2022-07-06T12:31:01;7.07;;;4.50;;
47555;SDS011;33291;46.222;26.460;2022-07-06T12:33:27;4.90;;;4.40;;
47555;SDS011;33291;46.222;26.460;2022-07-06T12:35:53;5.32;;;4.75;;
47555;SDS011;33291;46.222;26.460;2022-07-06T12:38:22;10.43;;;4.82;;
47555;SDS011;33291;46.222;26.460;2022-07-06T12:43:39;7.63;;;4.90;;
47555;SDS011;33291;46.222;26.460;2022-07-06T12:46:25;7.50;;;4.43;;
47555;SDS011;33291;46.222;26.460;2022-07-06T12:48:55;6.40;;;4.78;;
47555;SDS011;33291;46.222;26.460;2022-07-06T12:51:22;8.63;;;5.50;;
47555;SDS011;33291;46.222;26.460;2022-07-06T12:53:48;6.18;;;5.53;;
47555;SDS011;33291;46.222;26.460;2022-07-06T12:56:14;10.00;;;6.60;;
47555;SDS011;33291;46.222;26.460;2022-07-06T12:58:57;10.68;;;6.07;;
47555;SDS011;33291;46.222;26.460;2022-07-06T13:01:23;8.07;;;5.20;;
47555;SDS011;33291;46.222;26.460;2022-07-06T13:03:53;8.52;;;4.50;;
47555;SDS011;33291;46.222;26.460;2022-07-06T13:06:28;9.13;;;4.90;;
47555;SDS011;33291;46.222;26.460;2022-07-06T13:08:56;9.52;;;5.07;;
47555;SDS011;33291;46.222;26.460;2022-07-06T13:11:21;7.28;;;5.30;;
47555;SDS011;33291;46.222;26.460;2022-07-06T13:13:47;12.48;;;5.88;;
47555;SDS011;33291;46.222;26.460;2022-07-06T13:16:12;8.95;;;6.15;;
47555;SDS011;33291;46.222;26.460;2022-07-06T13:18:38;7.07;;;6.13;;
47555;SDS011;33291;46.222;26.460;2022-07-06T13:21:03;10.48;;;6.22;;
47555;SDS011;33291;46.222;26.460;2022-07-06T13:23:29;8.80;;;6.28;;
47555;SDS011;33291;46.222;26.460;2022-07-06T13:25:54;8.80;;;6.00;;
47555;SDS011;33291;46.222;26.460;2022-07-06T13:28:20;9.57;;;6.15;;
47555;SDS011;33291;46.222;26.460;2022-07-06T13:30:46;10.40;;;6.28;;
47555;SDS011;33291;46.222;26.460;2022-07-06T13:33:11;9.07;;;5.15;;
47555;SDS011;33291;46.222;26.460;2022-07-06T13:35:37;5.93;;;5.40;;
47555;SDS011;33291;46.222;26.460;2022-07-06T13:38:02;11.63;;;5.53;;
47555;SDS011;33291;46.222;26.460;2022-07-06T13:40:27;7.60;;;4.65;;
47555;SDS011;33291;46.222;26.460;2022-07-06T13:42:53;4.40;;;4.00;;
47555;SDS011;33291;46.222;26.460;2022-07-06T13:45:19;9.00;;;4.35;;
47555;SDS011;33291;46.222;26.460;2022-07-06T13:47:45;9.00;;;4.10;;
47555;SDS011;33291;46.222;26.460;2022-07-06T13:50:10;7.63;;;4.00;;
47555;SDS011;33291;46.222;26.460;2022-07-06T13:52:36;6.38;;;3.75;;
47555;SDS011;33291;46.222;26.460;2022-07-06T13:55:02;7.32;;;5.28;;
47555;SDS011;33291;46.222;26.460;2022-07-06T13:57:29;7.97;;;4.25;;
47555;SDS011;33291;46.222;26.460;2022-07-06T13:59:54;5.53;;;3.85;;
47555;SDS011;33291;46.222;26.460;2022-07-06T14:02:20;9.90;;;5.18;;
47555;SDS011;33291;46.222;26.460;2022-07-06T14:04:45;11.45;;;5.45;;
47555;SDS011;33291;46.222;26.460;2022-07-06T14:07:10;15.50;;;5.85;;
47555;SDS011;33291;46.222;26.460;2022-07-06T14:09:36;11.40;;;5.72;;
47555;SDS011;33291;46.222;26.460;2022-07-06T14:12:02;11.05;;;4.72;;
47555;SDS011;33291;46.222;26.460;2022-07-06T14:14:28;15.63;;;5.82;;
47555;SDS011;33291;46.222;26.460;2022-07-06T14:16:53;16.77;;;5.72;;
47555;SDS011;33291;46.222;26.460;2022-07-06T14:19:20;11.18;;;5.57;;
47555;SDS011;33291;46.222;26.460;2022-07-06T14:21:47;8.60;;;5.60;;
47555;SDS011;33291;46.222;26.460;2022-07-06T14:24:13;11.70;;;5.93;;
47555;SDS011;33291;46.222;26.460;2022-07-06T14:26:39;15.15;;;6.55;;
47555;SDS011;33291;46.222;26.460;2022-07-06T14:29:05;11.40;;;5.43;;
47555;SDS011;33291;46.222;26.460;2022-07-06T14:31:30;9.10;;;5.88;;
47555;SDS011;33291;46.222;26.460;2022-07-06T14:33:56;11.93;;;5.53;;
47555;SDS011;33291;46.222;26.460;2022-07-06T14:36:21;14.40;;;6.00;;
47555;SDS011;33291;46.222;26.460;2022-07-06T14:38:47;15.20;;;6.03;;
47555;SDS011;33291;46.222;26.460;2022-07-06T14:41:12;14.57;;;6.35;;
47555;SDS011;33291;46.222;26.460;2022-07-06T14:43:38;16.73;;;6.53;;
47555;SDS011;33291;46.222;26.460;2022-07-06T14:46:04;11.70;;;5.50;;
47555;SDS011;33291;46.222;26.460;2022-07-06T14:48:30;8.95;;;5.95;;
47555;SDS011;33291;46.222;26.460;2022-07-06T14:50:56;6.90;;;5.22;;